createdAt,value
2022-09-04T00:01:32.543Z,6.20
2022-09-04T00:04:12.370Z,6.90
2022-09-04T00:06:47.344Z,6.63
2022-09-04T00:09:21.795Z,6.97
2022-09-04T00:11:54.791Z,7.43
2022-09-04T00:14:27.503Z,6.57
2022-09-04T00:17:02.154Z,6.77
2022-09-04T00:19:35.981Z,6.90
2022-09-04T00:22:10.215Z,6.00
2022-09-04T00:24:40.461Z,6.80
2022-09-04T00:27:13.952Z,6.70
2022-09-04T00:29:48.834Z,6.70
2022-09-04T00:32:21.761Z,6.37
2022-09-04T00:34:58.923Z,6.30
2022-09-04T00:37:31.345Z,6.83
2022-09-04T00:40:05.189Z,6.30
2022-09-04T00:42:47.624Z,6.67
2022-09-04T00:45:30.160Z,6.63
2022-09-04T00:48:18.925Z,6.87
2022-09-04T00:51:04.633Z,7.00
2022-09-04T00:53:43.974Z,7.07
2022-09-04T00:56:37.474Z,6.73
2022-09-04T00:59:17.345Z,7.30
2022-09-04T01:01:47.845Z,7.03
2022-09-04T01:04:36.488Z,6.50
2022-09-04T01:07:18.253Z,6.90
2022-09-04T01:10:01.324Z,6.30
2022-09-04T01:12:35.681Z,6.47
2022-09-04T01:15:14.702Z,6.43
2022-09-04T01:17:52.572Z,6.73
2022-09-04T01:20:29.104Z,6.60
2022-09-04T01:23:11.843Z,6.07
2022-09-04T01:26:03.223Z,6.70
2022-09-04T01:29:18.032Z,6.33
2022-09-04T01:31:52.563Z,6.47
2022-09-04T01:34:31.816Z,7.07
2022-09-04T01:37:07.096Z,6.80
2022-09-04T01:39:38.268Z,6.53
2022-09-04T01:42:12.577Z,6.17
2022-09-04T01:44:41.225Z,6.80
2022-09-04T01:47:19.856Z,6.00
2022-09-04T01:49:52.736Z,5.93
2022-09-04T01:52:36.834Z,7.03
2022-09-04T01:55:15.725Z,6.10
2022-09-04T01:57:56.737Z,6.10
2022-09-04T02:00:25.834Z,6.20
2022-09-04T02:02:58.074Z,5.10
2022-09-04T02:05:32.367Z,6.77
2022-09-04T02:08:08.455Z,7.10
2022-09-04T02:10:40.266Z,7.93
2022-09-04T02:13:16.345Z,7.60
2022-09-04T02:15:51.715Z,6.93
2022-09-04T02:18:25.262Z,7.37
2022-09-04T02:20:58.755Z,6.53
2022-09-04T02:23:35.396Z,6.47
2022-09-04T02:26:11.297Z,7.00
2022-09-04T02:28:50.368Z,6.43
2022-09-04T02:31:31.634Z,6.73
2022-09-04T02:34:03.177Z,7.33
2022-09-04T02:36:36.297Z,7.57
2022-09-04T02:39:13.930Z,6.90
2022-09-04T02:41:51.210Z,7.67
2022-09-04T02:44:28.496Z,7.93
2022-09-04T02:47:03.474Z,7.83
2022-09-04T02:49:38.625Z,7.60
2022-09-04T02:52:20.167Z,6.73
2022-09-04T02:55:09.547Z,5.63
2022-09-04T02:57:45.914Z,6.13
2022-09-04T03:00:27.601Z,6.37
2022-09-04T03:03:01.689Z,7.03
2022-09-04T03:05:33.315Z,7.43
2022-09-04T03:08:06.296Z,6.43
2022-09-04T03:10:38.176Z,6.20
2022-09-04T03:13:10.177Z,6.20
2022-09-04T03:15:42.838Z,6.37
2022-09-04T03:18:18.634Z,6.77
2022-09-04T03:20:52.918Z,6.53
2022-09-04T03:23:23.198Z,6.80
2022-09-04T03:26:03.060Z,7.33
2022-09-04T03:28:38.347Z,7.80
2022-09-04T03:31:18.081Z,7.23
2022-09-04T03:33:51.198Z,6.60
2022-09-04T03:36:25.658Z,7.13
2022-09-04T03:39:03.102Z,6.63
2022-09-04T03:41:42.658Z,7.30
2022-09-04T03:44:20.955Z,7.03
2022-09-04T03:47:00.808Z,7.37
2022-09-04T03:49:38.907Z,7.00
2022-09-04T03:52:14.153Z,6.67
2022-09-04T03:54:53.028Z,7.03
2022-09-04T03:57:33.367Z,7.77
2022-09-04T04:00:09.146Z,8.77
2022-09-04T04:02:55.648Z,9.30
2022-09-04T04:05:30.137Z,10.90
2022-09-04T04:08:28.048Z,10.87
2022-09-04T04:11:01.436Z,9.53
2022-09-04T04:13:51.049Z,8.90
2022-09-04T04:16:42.827Z,8.40
2022-09-04T04:19:28.158Z,8.57
2022-09-04T04:22:10.652Z,7.60
2022-09-04T04:25:21.609Z,8.00
2022-09-04T04:28:20.371Z,7.70
2022-09-04T04:30:52.560Z,7.37
2022-09-04T04:33:39.099Z,7.13
2022-09-04T04:36:17.790Z,8.13
2022-09-04T04:38:56.169Z,6.93
2022-09-04T04:42:01.878Z,7.50
2022-09-04T04:44:52.585Z,7.87
2022-09-04T04:47:35.560Z,7.83
2022-09-04T04:50:13.800Z,7.50
2022-09-04T04:52:51.198Z,8.63
2022-09-04T04:55:31.251Z,8.90
2022-09-04T04:58:25.586Z,8.53
2022-09-04T05:01:05.277Z,8.37
2022-09-04T05:03:44.538Z,8.07
2022-09-04T05:06:16.068Z,9.37
2022-09-04T05:08:49.348Z,9.03
2022-09-04T05:11:24.379Z,8.95
2022-09-04T05:14:01.899Z,8.40
2022-09-04T05:16:36.546Z,7.87
2022-09-04T05:19:13.917Z,8.77
2022-09-04T05:21:48.838Z,7.33
2022-09-04T05:24:24.058Z,6.77
2022-09-04T05:26:56.310Z,7.20
2022-09-04T05:29:32.564Z,6.43
2022-09-04T05:32:09.797Z,5.47
2022-09-04T05:35:03.708Z,6.00
2022-09-04T05:37:35.908Z,5.93
2022-09-04T05:40:08.700Z,6.47
2022-09-04T05:42:45.541Z,6.17
2022-09-04T05:45:23.118Z,6.40
2022-09-04T05:48:01.158Z,6.70
2022-09-04T05:50:42.247Z,7.93
2022-09-04T05:53:41.296Z,6.70
2022-09-04T05:56:45.101Z,6.60
2022-09-04T05:59:42.515Z,8.67
2022-09-04T06:02:51.894Z,6.30
2022-09-04T06:05:46.560Z,6.50
2022-09-04T06:08:28.693Z,6.77
2022-09-04T06:11:05.676Z,6.37
2022-09-04T06:13:58.649Z,6.60
2022-09-04T06:16:43.140Z,6.20
2022-09-04T06:19:29.924Z,6.43
2022-09-04T06:22:16.657Z,6.93
2022-09-04T06:25:13.871Z,6.37
2022-09-04T06:27:53.477Z,5.23
2022-09-04T06:30:21.929Z,5.60
2022-09-04T06:33:18.252Z,5.30
2022-09-04T06:35:54.167Z,6.47
2022-09-04T06:38:36.787Z,6.47
2022-09-04T06:41:22.096Z,6.80
2022-09-04T06:43:54.501Z,6.43
2022-09-04T06:46:27.071Z,5.93
2022-09-04T06:49:02.208Z,6.77
2022-09-04T06:51:43.019Z,6.20
2022-09-04T06:54:17.366Z,7.03
2022-09-04T06:57:03.127Z,6.87
2022-09-04T06:59:49.847Z,7.53
2022-09-04T07:02:31.361Z,7.57
2022-09-04T07:05:10.317Z,7.90
2022-09-04T07:07:42.575Z,7.93
2022-09-04T07:10:13.969Z,7.43
2022-09-04T07:12:55.546Z,7.27
2022-09-04T07:15:38.864Z,7.13
2022-09-04T07:18:18.672Z,7.72
2022-09-04T07:20:56.270Z,8.10
2022-09-04T07:23:32.838Z,7.50
2022-09-04T07:26:08.819Z,7.33
2022-09-04T07:29:30.649Z,6.73
2022-09-04T07:32:03.154Z,8.03
2022-09-04T07:34:40.099Z,7.77
2022-09-04T07:37:23.533Z,8.27
2022-09-04T07:39:58.025Z,7.53
2022-09-04T07:42:35.950Z,7.10
2022-09-04T07:45:06.661Z,7.47
2022-09-04T07:47:38.446Z,7.93
2022-09-04T07:50:11.914Z,6.30
2022-09-04T07:52:55.180Z,6.47
2022-09-04T07:55:29.148Z,6.40
2022-09-04T07:58:31.663Z,5.03
2022-09-04T08:01:16.668Z,4.87
2022-09-04T08:04:05.084Z,5.47
2022-09-04T08:06:38.398Z,5.30
2022-09-04T08:09:24.643Z,5.40
2022-09-04T08:12:16.016Z,5.50
2022-09-04T08:14:54.354Z,5.70
2022-09-04T08:17:43.248Z,5.37
2022-09-04T08:20:21.755Z,8.40
2022-09-04T08:22:56.915Z,8.63
2022-09-04T08:25:30.502Z,5.63
2022-09-04T08:28:19.059Z,5.23
2022-09-04T08:30:54.977Z,5.53
2022-09-04T08:33:44.976Z,4.50
2022-09-04T08:36:21.083Z,3.90
2022-09-04T08:39:04.596Z,3.57
2022-09-04T08:42:15.215Z,3.27
2022-09-04T08:45:20.471Z,3.50
2022-09-04T08:48:32.672Z,3.20
2022-09-04T08:52:00.614Z,3.77
2022-09-04T08:55:03.415Z,3.40
2022-09-04T08:58:14.272Z,3.70
2022-09-04T09:00:58.276Z,3.87
2022-09-04T09:03:42.652Z,3.53
2022-09-04T09:06:59.085Z,3.73
2022-09-04T09:09:46.465Z,3.80
2022-09-04T09:12:53.064Z,4.10
2022-09-04T09:15:38.434Z,4.30
2022-09-04T09:18:18.418Z,4.20
2022-09-04T09:20:50.834Z,4.20
2022-09-04T09:23:21.397Z,4.07
2022-09-04T09:26:18.574Z,4.00
2022-09-04T09:29:13.835Z,3.80
2022-09-04T09:32:09.373Z,4.30
2022-09-04T09:34:55.415Z,3.63
2022-09-04T09:38:04.287Z,3.70
2022-09-04T09:40:58.070Z,4.27
2022-09-04T09:44:00.048Z,4.40
2022-09-04T09:47:10.094Z,3.40
2022-09-04T09:50:04.291Z,3.60
2022-09-04T09:53:08.664Z,3.70
2022-09-04T09:56:02.534Z,3.50
2022-09-04T09:59:07.264Z,4.10
2022-09-04T10:02:00.458Z,3.07
2022-09-04T10:04:44.814Z,3.70
2022-09-04T10:07:39.304Z,3.57
2022-09-04T10:10:25.014Z,3.30
2022-09-04T10:13:16.265Z,3.30
2022-09-04T10:16:05.730Z,3.47
2022-09-04T10:18:59.373Z,3.27
2022-09-04T10:21:59.238Z,3.63
2022-09-04T10:24:59.285Z,3.50
2022-09-04T10:27:44.164Z,3.30
2022-09-04T10:30:13.724Z,2.70
2022-09-04T10:33:12.795Z,2.97
2022-09-04T10:35:54.939Z,2.97
2022-09-04T10:38:28.684Z,2.83
2022-09-04T10:41:22.987Z,2.63
2022-09-04T10:44:03.873Z,2.33
2022-09-04T10:46:37.545Z,2.30
2022-09-04T10:49:29.655Z,2.60
2022-09-04T10:52:31.905Z,2.17
2022-09-04T10:55:11.993Z,2.60
2022-09-04T10:58:05.643Z,3.00
2022-09-04T11:00:37.933Z,2.17
2022-09-04T11:03:28.277Z,2.90
2022-09-04T11:06:49.524Z,2.87
2022-09-04T11:09:31.775Z,2.17
2022-09-04T11:12:12.945Z,2.30
2022-09-04T11:15:03.776Z,4.00
2022-09-04T11:18:19.465Z,2.33
2022-09-04T11:21:23.233Z,2.40
2022-09-04T11:24:23.896Z,2.30
2022-09-04T11:27:31.225Z,3.90
2022-09-04T11:30:07.435Z,2.27
2022-09-04T11:33:16.293Z,2.03
2022-09-04T11:36:09.775Z,2.13
2022-09-04T11:39:02.775Z,1.70
2022-09-04T11:41:57.896Z,2.20
2022-09-04T11:45:05.845Z,1.77
2022-09-04T11:48:00.476Z,1.90
2022-09-04T11:50:38.597Z,1.80
2022-09-04T11:54:00.582Z,1.73
2022-09-04T11:56:42.046Z,3.87
2022-09-04T11:59:32.853Z,2.17
2022-09-04T12:02:17.429Z,1.77
2022-09-04T12:05:01.328Z,2.67
2022-09-04T12:07:51.274Z,2.53
2022-09-04T12:10:45.637Z,2.73
2022-09-04T12:13:52.974Z,2.20
2022-09-04T12:16:53.130Z,2.67
2022-09-04T12:19:40.100Z,2.00
2022-09-04T12:22:45.027Z,2.10
2022-09-04T12:25:23.910Z,1.83
2022-09-04T12:28:13.366Z,1.50
2022-09-04T12:30:52.756Z,1.97
2022-09-04T12:33:37.647Z,2.07
2022-09-04T12:36:27.541Z,4.83
2022-09-04T12:39:32.083Z,2.50
2022-09-04T12:42:06.346Z,1.90
2022-09-04T12:44:43.966Z,2.20
2022-09-04T12:47:25.406Z,1.80
2022-09-04T12:50:22.267Z,1.83
2022-09-04T12:53:31.693Z,1.80
2022-09-04T12:56:06.216Z,2.00
2022-09-04T12:58:48.057Z,1.90
2022-09-04T13:01:32.355Z,1.73
2022-09-04T13:04:12.445Z,2.00
2022-09-04T13:06:53.253Z,9.65
2022-09-04T13:09:25.957Z,2.70
2022-09-04T13:12:03.016Z,1.90
2022-09-04T13:14:50.287Z,1.60
2022-09-04T13:17:23.566Z,1.67
2022-09-04T13:20:00.527Z,1.67
2022-09-04T13:22:34.937Z,1.60
2022-09-04T13:25:10.548Z,1.33
2022-09-04T13:27:51.628Z,1.37
2022-09-04T13:30:24.625Z,1.80
2022-09-04T13:33:12.896Z,2.10
2022-09-04T13:35:50.617Z,1.67
2022-09-04T13:38:39.367Z,1.67
2022-09-04T13:41:30.280Z,1.60
2022-09-04T13:44:26.978Z,1.50
2022-09-04T13:47:01.523Z,1.40
2022-09-04T13:49:31.288Z,1.53
2022-09-04T13:52:07.385Z,1.40
2022-09-04T13:54:37.838Z,1.33
2022-09-04T13:57:09.832Z,1.10
2022-09-04T13:59:38.578Z,1.30
2022-09-04T14:02:12.509Z,1.50
2022-09-04T14:04:44.809Z,1.20
2022-09-04T14:07:17.578Z,5.77
2022-09-04T14:09:47.758Z,11.20
2022-09-04T14:12:41.638Z,2.43
2022-09-04T14:15:33.019Z,1.60
2022-09-04T14:18:14.090Z,1.40
2022-09-04T14:20:51.357Z,1.50
2022-09-04T14:23:24.298Z,1.77
2022-09-04T14:25:57.399Z,1.73
2022-09-04T14:28:31.221Z,1.50
2022-09-04T14:31:10.412Z,1.30
2022-09-04T14:33:47.367Z,1.37
2022-09-04T14:36:25.061Z,1.40
2022-09-04T14:39:04.167Z,1.33
2022-09-04T14:41:42.727Z,1.83
2022-09-04T14:44:20.580Z,1.73
2022-09-04T14:46:59.142Z,1.60
2022-09-04T14:49:31.793Z,1.93
2022-09-04T14:52:03.479Z,2.00
2022-09-04T14:54:36.339Z,1.70
2022-09-04T14:57:13.670Z,1.67
2022-09-04T14:59:45.747Z,1.60
2022-09-04T15:02:23.035Z,1.83
2022-09-04T15:04:55.069Z,1.90
2022-09-04T15:07:35.401Z,1.70
2022-09-04T15:10:15.700Z,2.00
2022-09-04T15:12:45.719Z,1.67
2022-09-04T15:15:18.199Z,1.53
2022-09-04T15:17:51.678Z,2.10
2022-09-04T15:20:23.907Z,1.70
2022-09-04T15:22:54.970Z,2.00
2022-09-04T15:25:59.801Z,1.90
2022-09-04T15:28:30.939Z,1.90
2022-09-04T15:31:13.280Z,1.90
2022-09-04T15:33:43.970Z,1.70
2022-09-04T15:36:18.516Z,2.10
2022-09-04T15:38:52.680Z,1.70
2022-09-04T15:41:26.277Z,1.77
2022-09-04T15:43:59.548Z,5.27
2022-09-04T15:46:37.354Z,2.70
2022-09-04T15:49:19.790Z,1.53
2022-09-04T15:51:53.010Z,1.53
2022-09-04T15:54:29.070Z,1.90
2022-09-04T15:57:01.396Z,1.93
2022-09-04T15:59:37.350Z,6.03
2022-09-04T16:02:12.754Z,1.50
2022-09-04T16:04:46.210Z,1.60
2022-09-04T16:07:40.481Z,1.57
2022-09-04T16:10:16.312Z,1.80
2022-09-04T16:12:52.601Z,1.77
2022-09-04T16:15:27.298Z,1.47
2022-09-04T16:17:56.791Z,1.70
2022-09-04T16:20:30.937Z,1.53
2022-09-04T16:23:04.170Z,1.73
2022-09-04T16:25:34.310Z,1.90
2022-09-04T16:28:06.260Z,1.47
2022-09-04T16:30:41.831Z,1.93
2022-09-04T16:33:27.721Z,1.83
2022-09-04T16:36:00.721Z,1.80
2022-09-04T16:38:33.500Z,1.43
2022-09-04T16:41:06.280Z,1.40
2022-09-04T16:43:35.491Z,1.57
2022-09-04T16:46:10.096Z,1.50
2022-09-04T16:48:44.563Z,1.80
2022-09-04T16:51:40.010Z,2.47
2022-09-04T16:54:13.571Z,3.33
2022-09-04T16:56:43.709Z,1.90
2022-09-04T16:59:25.111Z,2.20
2022-09-04T17:02:00.864Z,1.90
2022-09-04T17:04:35.882Z,3.93
2022-09-04T17:07:15.549Z,2.30
2022-09-04T17:09:51.741Z,2.70
2022-09-04T17:12:28.626Z,3.70
2022-09-04T17:15:00.333Z,2.13
2022-09-04T17:17:31.969Z,1.80
2022-09-04T17:20:06.553Z,1.70
2022-09-04T17:28:54.691Z,4.70
2022-09-04T17:29:13.396Z,7.37
2022-09-04T17:29:18.361Z,9.97
2022-09-04T17:31:23.442Z,5.63
2022-09-04T17:40:31.824Z,6.33
2022-09-04T17:40:47.891Z,4.27
2022-09-04T17:40:52.535Z,6.30
2022-09-04T17:42:58.453Z,8.30
2022-09-04T17:45:35.641Z,10.70
2022-09-04T17:48:17.211Z,4.37
2022-09-04T17:50:50.023Z,2.53
2022-09-04T17:53:33.741Z,8.37
2022-09-04T17:56:06.800Z,10.47
2022-09-04T17:58:43.201Z,12.80
2022-09-04T18:01:15.849Z,11.60
2022-09-04T18:04:19.918Z,6.83
2022-09-04T18:06:42.221Z,5.10
2022-09-04T18:09:13.691Z,3.60
2022-09-04T18:12:00.084Z,6.37
2022-09-04T18:14:37.471Z,5.17
2022-09-04T18:17:11.919Z,10.57
2022-09-04T18:19:45.931Z,61.67
2022-09-04T18:22:31.900Z,63.80
2022-09-04T18:25:15.750Z,16.87
2022-09-04T18:28:11.717Z,4.77
2022-09-04T18:37:08.981Z,3.60
2022-09-04T18:37:20.595Z,3.73
2022-09-04T18:37:20.966Z,3.03
2022-09-04T18:39:36.232Z,2.73
2022-09-04T18:50:29.609Z,3.47
2022-09-04T18:50:30.793Z,3.17
2022-09-04T18:50:36.801Z,2.83
2022-09-04T18:51:18.383Z,2.63
2022-09-04T18:53:44.712Z,3.40
2022-09-04T18:56:20.952Z,3.50
2022-09-04T18:58:58.102Z,3.27
2022-09-04T19:01:28.516Z,2.80
2022-09-04T19:04:18.898Z,3.33
2022-09-04T19:06:55.785Z,6.40
2022-09-04T19:09:55.296Z,6.03
2022-09-04T19:12:25.670Z,3.80
2022-09-04T19:15:08.762Z,3.20
2022-09-04T19:17:38.186Z,3.43
2022-09-04T19:20:13.102Z,3.20
2022-09-04T19:22:46.257Z,3.47
2022-09-04T19:25:17.996Z,3.30
2022-09-04T19:27:51.863Z,3.03
2022-09-04T19:30:25.106Z,3.37
2022-09-04T19:33:03.174Z,3.07
2022-09-04T19:35:38.367Z,3.27
2022-09-04T19:43:51.283Z,3.30
2022-09-04T19:45:59.683Z,3.10
2022-09-04T19:46:05.990Z,2.90
2022-09-04T19:46:58.292Z,2.70
2022-09-04T19:52:57.518Z,3.40
2022-09-04T19:53:35.988Z,3.03
2022-09-04T19:55:26.046Z,3.57
2022-09-04T19:58:01.873Z,3.50
2022-09-04T20:00:44.055Z,4.13
2022-09-04T20:03:29.616Z,15.13
2022-09-04T20:06:20.103Z,9.13
2022-09-04T20:08:54.473Z,4.80
2022-09-04T20:11:32.403Z,4.33
2022-09-04T20:14:14.083Z,3.70
2022-09-04T20:16:48.534Z,3.50
2022-09-04T20:19:27.715Z,3.67
2022-09-04T20:22:02.435Z,3.93
2022-09-04T20:24:37.724Z,3.87
2022-09-04T20:27:10.397Z,4.40
2022-09-04T20:29:41.064Z,3.53
2022-09-04T20:32:13.006Z,3.50
2022-09-04T20:34:46.212Z,3.23
2022-09-04T20:37:29.974Z,3.40
2022-09-04T20:40:06.798Z,3.17
2022-09-04T20:42:38.683Z,3.53
2022-09-04T20:49:04.753Z,3.43
2022-09-04T20:52:44.634Z,3.83
2022-09-04T20:52:53.515Z,3.57
2022-09-04T20:53:48.658Z,3.80
2022-09-04T20:56:51.989Z,3.73
2022-09-04T21:03:07.646Z,4.10
2022-09-04T21:03:17.613Z,3.87
2022-09-04T21:05:23.134Z,3.77
2022-09-04T21:07:55.034Z,3.80
2022-09-04T21:10:27.376Z,3.90
2022-09-04T21:13:13.437Z,3.50
2022-09-04T21:15:48.397Z,3.70
2022-09-04T21:18:38.445Z,3.70
2022-09-04T21:21:30.135Z,3.60
2022-09-04T21:24:27.423Z,3.30
2022-09-04T21:27:22.078Z,3.33
2022-09-04T21:30:07.999Z,3.87
2022-09-04T21:33:26.843Z,4.17
2022-09-04T21:35:54.435Z,3.50
2022-09-04T21:38:48.755Z,4.20
2022-09-04T21:41:33.796Z,4.00
2022-09-04T21:44:36.118Z,4.20
2022-09-04T21:47:37.418Z,3.70
2022-09-04T21:50:34.485Z,4.43
2022-09-04T21:53:24.225Z,4.33
2022-09-04T22:00:30.697Z,5.23
2022-09-04T22:02:35.290Z,3.83
2022-09-04T22:02:41.702Z,4.50
2022-09-04T22:05:18.668Z,3.90
2022-09-04T22:12:13.057Z,4.10
2022-09-04T22:13:38.856Z,5.17
2022-09-04T22:13:50.385Z,4.90
2022-09-04T22:16:30.796Z,4.30
2022-09-04T22:19:17.100Z,4.37
2022-09-04T22:22:03.387Z,4.27
2022-09-04T22:25:12.491Z,5.03
2022-09-04T22:28:14.327Z,4.40
2022-09-04T22:31:00.842Z,4.20
2022-09-04T22:34:15.190Z,4.43
2022-09-04T22:37:12.973Z,4.00
2022-09-04T22:39:57.832Z,4.83
2022-09-04T22:42:40.347Z,4.70
2022-09-04T22:45:24.124Z,4.33
2022-09-04T22:48:19.425Z,4.63
2022-09-04T22:51:01.380Z,4.77
2022-09-04T22:53:58.868Z,4.53
2022-09-04T22:56:49.078Z,4.53
2022-09-04T22:59:43.798Z,4.33
2022-09-04T23:03:08.496Z,4.50
2022-09-04T23:07:28.005Z,4.83
2022-09-04T23:13:43.768Z,5.00
2022-09-04T23:13:51.606Z,4.30
2022-09-04T23:15:57.948Z,4.93
2022-09-04T23:21:16.627Z,4.87
2022-09-04T23:26:44.145Z,5.37
2022-09-04T23:26:49.026Z,5.00
2022-09-04T23:27:55.898Z,5.00
2022-09-04T23:30:27.152Z,4.93
2022-09-04T23:33:27.876Z,4.90
2022-09-04T23:36:28.382Z,5.07
2022-09-04T23:39:24.199Z,4.87
2022-09-04T23:42:00.824Z,4.87
2022-09-04T23:44:58.296Z,5.63
2022-09-04T23:47:47.766Z,5.03
2022-09-04T23:50:30.427Z,5.97
2022-09-04T23:53:06.323Z,5.57
2022-09-04T23:55:51.594Z,5.40
2022-09-04T23:58:52.211Z,5.40
